sensor_id;sensor_type;location;lat;lon;timestamp;pressure;altitude;pressure_sealevel;temperature;humidity
36828;BME280;22766;48.042;11.192;2023-04-29T00:00:09;94753.63;;;9.46;100.00
36828;BME280;22766;48.042;11.192;2023-04-29T00:02:39;94736.03;;;9.67;100.00
36828;BME280;22766;48.042;11.192;2023-04-29T00:05:07;94740.22;;;9.68;100.00
36828;BME280;22766;48.042;11.192;2023-04-29T00:07:34;94743.00;;;9.74;100.00
36828;BME280;22766;48.042;11.192;2023-04-29T00:10:02;94737.63;;;9.68;100.00
36828;BME280;22766;48.042;11.192;2023-04-29T00:12:28;94736.53;;;9.70;100.00
36828;BME280;22766;48.042;11.192;2023-04-29T00:14:57;94736.53;;;9.70;100.00
36828;BME280;22766;48.042;11.192;2023-04-29T00:17:28;94743.88;;;9.65;100.00
36828;BME280;22766;48.042;11.192;2023-04-29T00:19:54;94735.97;;;9.59;100.00
36828;BME280;22766;48.042;11.192;2023-04-29T00:22:21;94733.09;;;9.62;100.00
36828;BME280;22766;48.042;11.192;2023-04-29T00:24:48;94732.75;;;9.57;100.00
36828;BME280;22766;48.042;11.192;2023-04-29T00:27:15;94725.50;;;9.60;100.00
36828;BME280;22766;48.042;11.192;2023-04-29T00:29:43;94737.94;;;9.65;100.00
36828;BME280;22766;48.042;11.192;2023-04-29T00:32:10;94738.28;;;9.70;100.00
36828;BME280;22766;48.042;11.192;2023-04-29T00:34:37;94732.81;;;9.73;100.00
36828;BME280;22766;48.042;11.192;2023-04-29T00:37:03;94731.38;;;9.70;100.00
36828;BME280;22766;48.042;11.192;2023-04-29T00:39:30;94732.16;;;9.71;100.00
36828;BME280;22766;48.042;11.192;2023-04-29T00:41:57;94730.41;;;9.71;100.00
36828;BME280;22766;48.042;11.192;2023-04-29T00:44:23;94733.94;;;9.70;100.00
36828;BME280;22766;48.042;11.192;2023-04-29T00:46:50;94729.13;;;9.75;100.00
36828;BME280;22766;48.042;11.192;2023-04-29T00:49:17;94727.06;;;9.79;100.00
36828;BME280;22766;48.042;11.192;2023-04-29T00:51:43;94720.63;;;9.83;100.00
36828;BME280;22766;48.042;11.192;2023-04-29T00:54:10;94729.00;;;9.85;100.00
36828;BME280;22766;48.042;11.192;2023-04-29T00:56:39;94727.88;;;9.79;100.00
36828;BME280;22766;48.042;11.192;2023-04-29T00:59:08;94724.50;;;9.87;100.00
36828;BME280;22766;48.042;11.192;2023-04-29T01:01:35;94729.69;;;9.87;100.00
36828;BME280;22766;48.042;11.192;2023-04-29T01:04:03;94734.84;;;9.87;100.00
36828;BME280;22766;48.042;11.192;2023-04-29T01:10:06;94735.50;;;9.89;100.00
36828;BME280;22766;48.042;11.192;2023-04-29T01:12:12;94735.28;;;9.82;100.00
36828;BME280;22766;48.042;11.192;2023-04-29T01:14:44;94729.00;;;9.85;100.00
36828;BME280;22766;48.042;11.192;2023-04-29T01:17:17;94734.28;;;9.75;100.00
36828;BME280;22766;48.042;11.192;2023-04-29T01:20:03;94738.38;;;9.86;100.00
36828;BME280;22766;48.042;11.192;2023-04-29T01:22:31;94731.44;;;9.86;100.00
36828;BME280;22766;48.042;11.192;2023-04-29T01:24:57;94730.81;;;9.92;100.00
36828;BME280;22766;48.042;11.192;2023-04-29T01:27:36;94728.84;;;9.86;100.00
36828;BME280;22766;48.042;11.192;2023-04-29T01:35:48;94733.91;;;9.96;100.00
36828;BME280;22766;48.042;11.192;2023-04-29T01:38:36;94735.03;;;10.01;100.00
36828;BME280;22766;48.042;11.192;2023-04-29T01:41:22;94732.13;;;9.96;100.00
36828;BME280;22766;48.042;11.192;2023-04-29T01:44:01;94732.34;;;10.03;100.00
36828;BME280;22766;48.042;11.192;2023-04-29T01:46:30;94730.91;;;10.08;100.00
36828;BME280;22766;48.042;11.192;2023-04-29T01:48:57;94730.63;;;10.11;100.00
36828;BME280;22766;48.042;11.192;2023-04-29T01:51:24;94732.84;;;10.06;100.00
36828;BME280;22766;48.042;11.192;2023-04-29T01:53:51;94727.81;;;10.05;100.00
36828;BME280;22766;48.042;11.192;2023-04-29T01:56:18;94719.78;;;10.08;100.00
36828;BME280;22766;48.042;11.192;2023-04-29T01:58:56;94725.72;;;10.00;100.00
36828;BME280;22766;48.042;11.192;2023-04-29T02:01:25;94734.09;;;10.02;100.00
36828;BME280;22766;48.042;11.192;2023-04-29T02:03:52;94725.72;;;10.00;100.00
36828;BME280;22766;48.042;11.192;2023-04-29T02:06:19;94728.78;;;10.04;100.00
36828;BME280;22766;48.042;11.192;2023-04-29T02:08:52;94718.63;;;10.02;100.00
36828;BME280;22766;48.042;11.192;2023-04-29T02:11:19;94724.41;;;9.96;100.00
36828;BME280;22766;48.042;11.192;2023-04-29T02:13:46;94718.63;;;10.02;100.00
36828;BME280;22766;48.042;11.192;2023-04-29T02:16:14;94720.56;;;10.00;100.00
36828;BME280;22766;48.042;11.192;2023-04-29T02:18:48;94721.38;;;10.01;100.00
36828;BME280;22766;48.042;11.192;2023-04-29T02:21:14;94733.78;;;10.05;100.00
36828;BME280;22766;48.042;11.192;2023-04-29T02:23:41;94722.81;;;10.03;100.00
36828;BME280;22766;48.042;11.192;2023-04-29T02:26:08;94728.44;;;9.99;100.00
36828;BME280;22766;48.042;11.192;2023-04-29T02:28:36;94725.22;;;9.97;100.00
36828;BME280;22766;48.042;11.192;2023-04-29T02:31:03;94724.41;;;9.96;100.00
36828;BME280;22766;48.042;11.192;2023-04-29T02:33:30;94726.66;;;9.99;100.00
36828;BME280;22766;48.042;11.192;2023-04-29T02:35:56;94729.09;;;10.01;100.00
36828;BME280;22766;48.042;11.192;2023-04-29T02:38:25;94725.75;;;10.08;100.00
36828;BME280;22766;48.042;11.192;2023-04-29T02:40:52;94726.44;;;10.10;100.00
36828;BME280;22766;48.042;11.192;2023-04-29T02:43:20;94721.53;;;10.07;100.00
36828;BME280;22766;48.042;11.192;2023-04-29T02:45:47;94723.69;;;10.12;100.00
36828;BME280;22766;48.042;11.192;2023-04-29T02:48:14;94727.56;;;10.16;100.00
36828;BME280;22766;48.042;11.192;2023-04-29T02:50:41;94729.00;;;10.18;100.00
36828;BME280;22766;48.042;11.192;2023-04-29T02:53:08;94729.53;;;10.30;100.00
36828;BME280;22766;48.042;11.192;2023-04-29T02:55:34;94726.63;;;10.25;100.00
36828;BME280;22766;48.042;11.192;2023-04-29T02:58:06;94730.50;;;10.21;100.00
36828;BME280;22766;48.042;11.192;2023-04-29T03:00:33;94731.59;;;10.18;100.00
36828;BME280;22766;48.042;11.192;2023-04-29T03:03:00;94725.50;;;10.19;100.00
36828;BME280;22766;48.042;11.192;2023-04-29T03:05:27;94732.25;;;10.20;100.00
36828;BME280;22766;48.042;11.192;2023-04-29T03:07:54;94732.88;;;10.14;100.00
36828;BME280;22766;48.042;11.192;2023-04-29T03:10:21;94733.47;;;10.08;100.00
36828;BME280;22766;48.042;11.192;2023-04-29T03:12:47;94734.38;;;9.99;100.00
36828;BME280;22766;48.042;11.192;2023-04-29T03:15:14;94730.53;;;10.03;100.00
36828;BME280;22766;48.042;11.192;2023-04-29T03:17:41;94731.31;;;9.96;100.00
36828;BME280;22766;48.042;11.192;2023-04-29T03:20:08;94731.81;;;9.91;100.00
36828;BME280;22766;48.042;11.192;2023-04-29T03:22:36;94725.34;;;9.87;100.00
36828;BME280;22766;48.042;11.192;2023-04-29T03:25:03;94728.06;;;9.86;100.00
36828;BME280;22766;48.042;11.192;2023-04-29T03:27:30;94728.19;;;9.84;100.00
36828;BME280;22766;48.042;11.192;2023-04-29T03:29:57;94729.84;;;9.85;100.00
36828;BME280;22766;48.042;11.192;2023-04-29T03:32:24;94727.88;;;9.79;100.00
36828;BME280;22766;48.042;11.192;2023-04-29T03:34:52;94728.03;;;9.78;100.00
36828;BME280;22766;48.042;11.192;2023-04-29T03:37:34;94723.47;;;9.72;100.00
36828;BME280;22766;48.042;11.192;2023-04-29T03:40:18;94723.47;;;9.72;100.00
36828;BME280;22766;48.042;11.192;2023-04-29T03:42:46;94729.69;;;9.61;100.00
36828;BME280;22766;48.042;11.192;2023-04-29T03:45:13;94718.75;;;9.59;100.00
36828;BME280;22766;48.042;11.192;2023-04-29T03:47:40;94722.78;;;9.62;100.00
36828;BME280;22766;48.042;11.192;2023-04-29T03:50:07;94729.34;;;9.56;100.00
36828;BME280;22766;48.042;11.192;2023-04-29T03:52:34;94733.00;;;9.46;100.00
36828;BME280;22766;48.042;11.192;2023-04-29T03:55:09;94727.97;;;9.44;100.00
36828;BME280;22766;48.042;11.192;2023-04-29T03:57:36;94727.88;;;9.28;100.00
36828;BME280;22766;48.042;11.192;2023-04-29T04:00:04;94725.09;;;9.21;100.00
36828;BME280;22766;48.042;11.192;2023-04-29T04:02:38;94729.50;;;9.29;100.00
36828;BME280;22766;48.042;11.192;2023-04-29T04:05:08;94725.75;;;9.23;100.00
36828;BME280;22766;48.042;11.192;2023-04-29T04:07:39;94727.00;;;9.19;100.00
36828;BME280;22766;48.042;11.192;2023-04-29T04:10:24;94734.38;;;9.14;100.00
36828;BME280;22766;48.042;11.192;2023-04-29T04:12:51;94736.31;;;9.12;100.00
36828;BME280;22766;48.042;11.192;2023-04-29T04:15:19;94739.69;;;9.13;100.00
36828;BME280;22766;48.042;11.192;2023-04-29T04:17:46;94735.13;;;9.07;100.00
36828;BME280;22766;48.042;11.192;2023-04-29T04:20:13;94735.41;;;9.21;100.00
36828;BME280;22766;48.042;11.192;2023-04-29T04:22:41;94744.81;;;9.56;100.00
36828;BME280;22766;48.042;11.192;2023-04-29T04:25:22;94738.94;;;9.72;100.00
36828;BME280;22766;48.042;11.192;2023-04-29T04:27:49;94737.53;;;9.77;100.00
36828;BME280;22766;48.042;11.192;2023-04-29T04:30:36;94744.50;;;9.85;100.00
36828;BME280;22766;48.042;11.192;2023-04-29T04:33:03;94747.38;;;9.82;100.00
36828;BME280;22766;48.042;11.192;2023-04-29T04:35:31;94751.06;;;9.79;100.00
36828;BME280;22766;48.042;11.192;2023-04-29T04:37:58;94752.84;;;9.79;100.00
36828;BME280;22766;48.042;11.192;2023-04-29T04:40:24;94755.91;;;9.82;100.00
36828;BME280;22766;48.042;11.192;2023-04-29T04:43:12;94753.00;;;9.77;100.00
36828;BME280;22766;48.042;11.192;2023-04-29T04:45:40;94755.03;;;9.99;100.00
36828;BME280;22766;48.042;11.192;2023-04-29T04:48:07;94747.28;;;9.91;100.00
36828;BME280;22766;48.042;11.192;2023-04-29T04:50:36;94760.66;;;9.95;100.00
36828;BME280;22766;48.042;11.192;2023-04-29T04:53:03;94760.28;;;9.90;100.00
36828;BME280;22766;48.042;11.192;2023-04-29T04:55:49;94755.84;;;10.00;100.00
36828;BME280;22766;48.042;11.192;2023-04-29T04:58:16;94757.75;;;9.98;100.00
36828;BME280;22766;48.042;11.192;2023-04-29T05:00:44;94753.31;;;10.08;100.00
36828;BME280;22766;48.042;11.192;2023-04-29T05:03:11;94758.00;;;10.12;100.00
36828;BME280;22766;48.042;11.192;2023-04-29T05:05:38;94764.19;;;10.19;100.00
36828;BME280;22766;48.042;11.192;2023-04-29T05:08:05;94756.28;;;10.21;100.00
36828;BME280;22766;48.042;11.192;2023-04-29T05:10:37;94765.00;;;10.28;100.00
36828;BME280;22766;48.042;11.192;2023-04-29T05:13:05;94771.19;;;10.35;100.00
36828;BME280;22766;48.042;11.192;2023-04-29T05:15:34;94761.53;;;10.45;100.00
36828;BME280;22766;48.042;11.192;2023-04-29T05:18:02;94764.28;;;10.52;100.00
36828;BME280;22766;48.042;11.192;2023-04-29T05:20:29;94770.13;;;10.62;100.00
36828;BME280;22766;48.042;11.192;2023-04-29T05:22:59;94778.84;;;10.69;100.00
36828;BME280;22766;48.042;11.192;2023-04-29T05:25:28;94777.09;;;10.69;100.00
36828;BME280;22766;48.042;11.192;2023-04-29T05:27:55;94783.53;;;10.73;100.00
36828;BME280;22766;48.042;11.192;2023-04-29T05:30:24;94784.22;;;10.91;100.00
36828;BME280;22766;48.042;11.192;2023-04-29T05:32:51;94787.63;;;10.92;100.00
36828;BME280;22766;48.042;11.192;2023-04-29T05:35:19;94781.19;;;10.96;100.00
36828;BME280;22766;48.042;11.192;2023-04-29T05:37:46;94784.22;;;11.07;100.00
36828;BME280;22766;48.042;11.192;2023-04-29T05:40:22;94796.69;;;11.20;100.00
36828;BME280;22766;48.042;11.192;2023-04-29T05:42:51;94787.97;;;11.37;100.00
36828;BME280;22766;48.042;11.192;2023-04-29T05:45:17;94793.31;;;11.36;100.00
36828;BME280;22766;48.042;11.192;2023-04-29T05:47:44;94801.06;;;11.36;100.00
36828;BME280;22766;48.042;11.192;2023-04-29T05:50:11;94797.97;;;11.48;100.00
36828;BME280;22766;48.042;11.192;2023-04-29T05:52:38;94797.16;;;11.56;100.00
36828;BME280;22766;48.042;11.192;2023-04-29T05:55:04;94795.22;;;11.50;100.00
36828;BME280;22766;48.042;11.192;2023-04-29T05:57:31;94805.88;;;11.63;100.00
36828;BME280;22766;48.042;11.192;2023-04-29T05:59:58;94807.19;;;11.67;100.00
36828;BME280;22766;48.042;11.192;2023-04-29T06:02:26;94803.50;;;11.77;100.00
36828;BME280;22766;48.042;11.192;2023-04-29T06:04:54;94815.09;;;11.97;100.00
36828;BME280;22766;48.042;11.192;2023-04-29T06:07:40;94812.78;;;12.10;100.00
36828;BME280;22766;48.042;11.192;2023-04-29T06:10:29;94819.88;;;12.16;100.00
36828;BME280;22766;48.042;11.192;2023-04-29T06:12:57;94822.78;;;12.21;100.00
36828;BME280;22766;48.042;11.192;2023-04-29T06:15:24;94824.59;;;12.21;100.00
36828;BME280;22766;48.042;11.192;2023-04-29T06:17:51;94833.00;;;12.23;100.00
36828;BME280;22766;48.042;11.192;2023-04-29T06:20:19;94831.66;;;12.27;100.00
36828;BME280;22766;48.042;11.192;2023-04-29T06:22:46;94833.94;;;12.22;100.00
36828;BME280;22766;48.042;11.192;2023-04-29T06:25:13;94836.69;;;12.29;100.00
36828;BME280;22766;48.042;11.192;2023-04-29T06:27:45;94837.47;;;12.37;100.00
36828;BME280;22766;48.042;11.192;2023-04-29T06:30:12;94837.16;;;12.40;100.00
36828;BME280;22766;48.042;11.192;2023-04-29T06:32:39;94839.03;;;12.54;100.00
36828;BME280;22766;48.042;11.192;2023-04-29T06:35:07;94831.69;;;12.66;100.00
36828;BME280;22766;48.042;11.192;2023-04-29T06:38:03;94841.56;;;12.70;100.00
36828;BME280;22766;48.042;11.192;2023-04-29T06:40:33;94836.19;;;12.72;100.00
36828;BME280;22766;48.042;11.192;2023-04-29T06:43:08;94841.84;;;12.75;100.00
36828;BME280;22766;48.042;11.192;2023-04-29T06:45:53;94842.44;;;12.93;100.00
36828;BME280;22766;48.042;11.192;2023-04-29T06:48:26;94848.03;;;13.05;100.00
36828;BME280;22766;48.042;11.192;2023-04-29T06:51:36;94838.84;;;13.48;100.00
36828;BME280;22766;48.042;11.192;2023-04-29T06:54:03;94842.25;;;13.48;100.00
36828;BME280;22766;48.042;11.192;2023-04-29T06:56:30;94837.13;;;13.63;100.00
36828;BME280;22766;48.042;11.192;2023-04-29T06:58:57;94842.22;;;14.08;100.00
36828;BME280;22766;48.042;11.192;2023-04-29T07:01:24;94838.75;;;14.16;100.00
36828;BME280;22766;48.042;11.192;2023-04-29T07:03:51;94835.66;;;14.35;100.00
36828;BME280;22766;48.042;11.192;2023-04-29T07:06:18;94837.19;;;14.58;100.00
36828;BME280;22766;48.042;11.192;2023-04-29T07:08:44;94842.44;;;14.65;100.00
36828;BME280;22766;48.042;11.192;2023-04-29T07:11:13;94842.81;;;14.76;100.00
36828;BME280;22766;48.042;11.192;2023-04-29T07:13:40;94833.94;;;14.71;100.00
36828;BME280;22766;48.042;11.192;2023-04-29T07:16:14;94848.84;;;14.62;100.00
36828;BME280;22766;48.042;11.192;2023-04-29T07:18:42;94843.06;;;14.67;100.00
36828;BME280;22766;48.042;11.192;2023-04-29T07:21:09;94844.97;;;14.73;100.00
36828;BME280;22766;48.042;11.192;2023-04-29T07:23:36;94850.41;;;14.92;100.00
36828;BME280;22766;48.042;11.192;2023-04-29T07:26:12;94847.06;;;15.34;100.00
36828;BME280;22766;48.042;11.192;2023-04-29T07:28:42;94853.13;;;15.20;100.00
36828;BME280;22766;48.042;11.192;2023-04-29T07:31:09;94844.63;;;15.12;100.00
36828;BME280;22766;48.042;11.192;2023-04-29T07:33:37;94850.56;;;15.06;100.00
36828;BME280;22766;48.042;11.192;2023-04-29T07:36:04;94849.41;;;15.29;100.00
36828;BME280;22766;48.042;11.192;2023-04-29T07:38:32;94854.06;;;15.34;100.00
36828;BME280;22766;48.042;11.192;2023-04-29T07:41:00;94853.97;;;14.91;100.00
36828;BME280;22766;48.042;11.192;2023-04-29T07:43:27;94855.28;;;15.52;100.00
36828;BME280;22766;48.042;11.192;2023-04-29T07:45:54;94858.31;;;15.56;100.00
36828;BME280;22766;48.042;11.192;2023-04-29T07:48:21;94853.38;;;15.61;100.00
36828;BME280;22766;48.042;11.192;2023-04-29T07:50:47;94849.09;;;16.23;100.00
36828;BME280;22766;48.042;11.192;2023-04-29T07:53:15;94848.50;;;16.55;100.00
36828;BME280;22766;48.042;11.192;2023-04-29T07:55:43;94844.88;;;16.50;100.00
36828;BME280;22766;48.042;11.192;2023-04-29T07:58:10;94851.72;;;16.02;100.00
36828;BME280;22766;48.042;11.192;2023-04-29T08:00:37;94854.31;;;15.74;100.00
36828;BME280;22766;48.042;11.192;2023-04-29T08:03:04;94853.72;;;15.79;100.00
36828;BME280;22766;48.042;11.192;2023-04-29T08:05:32;94853.63;;;15.66;100.00
36828;BME280;22766;48.042;11.192;2023-04-29T08:07:59;94861.06;;;15.48;100.00
36828;BME280;22766;48.042;11.192;2023-04-29T08:10:25;94856.47;;;15.50;100.00
36828;BME280;22766;48.042;11.192;2023-04-29T08:12:52;94855.03;;;15.12;100.00
36828;BME280;22766;48.042;11.192;2023-04-29T08:15:20;94855.13;;;15.04;100.00
36828;BME280;22766;48.042;11.192;2023-04-29T08:17:47;94849.78;;;14.90;100.00
36828;BME280;22766;48.042;11.192;2023-04-29T08:20:14;94842.69;;;14.99;100.00
36828;BME280;22766;48.042;11.192;2023-04-29T08:22:40;94844.25;;;15.15;100.00
36828;BME280;22766;48.042;11.192;2023-04-29T08:25:08;94851.03;;;15.30;100.00
36828;BME280;22766;48.042;11.192;2023-04-29T08:27:35;94851.72;;;15.53;100.00
36828;BME280;22766;48.042;11.192;2023-04-29T08:30:02;94849.88;;;15.96;100.00
36828;BME280;22766;48.042;11.192;2023-04-29T08:32:29;94845.75;;;16.63;100.00
36828;BME280;22766;48.042;11.192;2023-04-29T08:34:55;94851.81;;;17.18;100.00
36828;BME280;22766;48.042;11.192;2023-04-29T08:37:22;94856.06;;;17.32;100.00
36828;BME280;22766;48.042;11.192;2023-04-29T08:39:49;94853.75;;;16.96;100.00
36828;BME280;22766;48.042;11.192;2023-04-29T08:42:18;94863.06;;;16.77;100.00
36828;BME280;22766;48.042;11.192;2023-04-29T08:44:46;94853.00;;;17.15;100.00
36828;BME280;22766;48.042;11.192;2023-04-29T08:47:14;94850.63;;;17.20;100.00
36828;BME280;22766;48.042;11.192;2023-04-29T08:49:41;94853.56;;;17.64;100.00
36828;BME280;22766;48.042;11.192;2023-04-29T08:52:08;94852.78;;;18.10;100.00
36828;BME280;22766;48.042;11.192;2023-04-29T08:54:35;94857.00;;;18.11;100.00
36828;BME280;22766;48.042;11.192;2023-04-29T08:57:02;94859.81;;;17.83;100.00
36828;BME280;22766;48.042;11.192;2023-04-29T08:59:31;94863.19;;;17.64;100.00
36828;BME280;22766;48.042;11.192;2023-04-29T09:01:58;94858.25;;;17.22;100.00
36828;BME280;22766;48.042;11.192;2023-04-29T09:05:05;94855.63;;;16.74;100.00
36828;BME280;22766;48.042;11.192;2023-04-29T09:07:34;94860.50;;;16.50;100.00
36828;BME280;22766;48.042;11.192;2023-04-29T09:10:03;94869.06;;;16.16;100.00
36828;BME280;22766;48.042;11.192;2023-04-29T09:12:30;94862.94;;;16.30;100.00
36828;BME280;22766;48.042;11.192;2023-04-29T09:14:57;94863.81;;;17.06;100.00
36828;BME280;22766;48.042;11.192;2023-04-29T09:17:41;94862.03;;;17.80;100.00
36828;BME280;22766;48.042;11.192;2023-04-29T09:22:49;94855.66;;;19.05;100.00
36828;BME280;22766;48.042;11.192;2023-04-29T09:25:16;94852.59;;;19.58;100.00
36828;BME280;22766;48.042;11.192;2023-04-29T09:27:43;94859.69;;;19.51;100.00
36828;BME280;22766;48.042;11.192;2023-04-29T09:30:10;94861.59;;;19.31;100.00
36828;BME280;22766;48.042;11.192;2023-04-29T09:32:42;94854.69;;;18.99;100.00
36828;BME280;22766;48.042;11.192;2023-04-29T09:35:26;94853.72;;;19.31;100.00
36828;BME280;22766;48.042;11.192;2023-04-29T09:38:07;94860.22;;;18.65;100.00
36828;BME280;22766;48.042;11.192;2023-04-29T09:40:34;94862.25;;;18.17;100.00
36828;BME280;22766;48.042;11.192;2023-04-29T09:43:22;94858.78;;;17.58;100.00
36828;BME280;22766;48.042;11.192;2023-04-29T09:45:49;94860.28;;;17.33;100.00
36828;BME280;22766;48.042;11.192;2023-04-29T09:48:16;94862.22;;;17.11;100.00
36828;BME280;22766;48.042;11.192;2023-04-29T09:50:43;94858.41;;;16.39;100.00
36828;BME280;22766;48.042;11.192;2023-04-29T09:53:10;94854.66;;;16.82;100.00
36828;BME280;22766;48.042;11.192;2023-04-29T09:58:30;94855.84;;;16.79;100.00
36828;BME280;22766;48.042;11.192;2023-04-29T10:01:00;94853.19;;;16.39;100.00
36828;BME280;22766;48.042;11.192;2023-04-29T10:03:35;94853.72;;;16.00;100.00
36828;BME280;22766;48.042;11.192;2023-04-29T10:06:05;94849.63;;;15.91;100.00
36828;BME280;22766;48.042;11.192;2023-04-29T10:08:33;94846.47;;;16.23;100.00
36828;BME280;22766;48.042;11.192;2023-04-29T10:11:01;94847.19;;;16.72;100.00
36828;BME280;22766;48.042;11.192;2023-04-29T10:13:29;94846.13;;;16.60;100.00
36828;BME280;22766;48.042;11.192;2023-04-29T10:18:40;94845.69;;;17.51;100.00
36828;BME280;22766;48.042;11.192;2023-04-29T10:21:07;94837.09;;;17.64;100.00
36828;BME280;22766;48.042;11.192;2023-04-29T10:23:35;94848.06;;;17.40;100.00
36828;BME280;22766;48.042;11.192;2023-04-29T10:26:04;94835.31;;;17.11;100.00
36828;BME280;22766;48.042;11.192;2023-04-29T10:28:32;94832.63;;;16.91;100.00
36828;BME280;22766;48.042;11.192;2023-04-29T10:31:00;94839.09;;;16.54;100.00
36828;BME280;22766;48.042;11.192;2023-04-29T10:33:31;94835.50;;;16.96;100.00
36828;BME280;22766;48.042;11.192;2023-04-29T10:36:00;94837.91;;;17.04;100.00
36828;BME280;22766;48.042;11.192;2023-04-29T10:38:42;94835.56;;;17.22;100.00
36828;BME280;22766;48.042;11.192;2023-04-29T10:43:51;94830.84;;;17.65;100.00
36828;BME280;22766;48.042;11.192;2023-04-29T10:48:45;94837.94;;;18.10;100.00
36828;BME280;22766;48.042;11.192;2023-04-29T10:51:16;94837.72;;;17.99;100.00
36828;BME280;22766;48.042;11.192;2023-04-29T10:53:59;94835.69;;;17.74;100.00
36828;BME280;22766;48.042;11.192;2023-04-29T10:56:52;94836.19;;;17.31;100.00
36828;BME280;22766;48.042;11.192;2023-04-29T11:01:58;94837.69;;;17.66;100.00
36828;BME280;22766;48.042;11.192;2023-04-29T11:04:25;94829.06;;;18.44;100.00
36828;BME280;22766;48.042;11.192;2023-04-29T11:06:54;94829.25;;;19.13;100.00
36828;BME280;22766;48.042;11.192;2023-04-29T11:09:29;94822.22;;;19.51;97.67
36828;BME280;22766;48.042;11.192;2023-04-29T11:12:03;94820.66;;;19.75;100.00
36828;BME280;22766;48.042;11.192;2023-04-29T11:14:33;94819.84;;;20.30;94.51
36828;BME280;22766;48.042;11.192;2023-04-29T11:17:22;94820.69;;;20.24;90.34
36828;BME280;22766;48.042;11.192;2023-04-29T11:19:50;94820.56;;;20.19;86.83
36828;BME280;22766;48.042;11.192;2023-04-29T11:24:48;94822.09;;;21.23;81.64
36828;BME280;22766;48.042;11.192;2023-04-29T11:27:16;94830.28;;;22.74;72.44
36828;BME280;22766;48.042;11.192;2023-04-29T11:29:44;94831.31;;;22.73;67.47
36828;BME280;22766;48.042;11.192;2023-04-29T11:32:11;94835.69;;;23.58;69.64
36828;BME280;22766;48.042;11.192;2023-04-29T11:34:38;94830.59;;;24.79;61.83
36828;BME280;22766;48.042;11.192;2023-04-29T11:37:05;94835.16;;;25.06;59.68
36828;BME280;22766;48.042;11.192;2023-04-29T11:39:33;94833.13;;;25.77;53.53
36828;BME280;22766;48.042;11.192;2023-04-29T11:42:05;94834.75;;;24.59;51.25
36828;BME280;22766;48.042;11.192;2023-04-29T11:44:33;94834.03;;;23.69;54.16
36828;BME280;22766;48.042;11.192;2023-04-29T11:47:05;94833.91;;;23.92;54.96
36828;BME280;22766;48.042;11.192;2023-04-29T11:49:32;94840.38;;;23.40;53.27
36828;BME280;22766;48.042;11.192;2023-04-29T11:51:59;94835.31;;;22.87;55.04
36828;BME280;22766;48.042;11.192;2023-04-29T11:54:28;94841.59;;;22.97;58.01
36828;BME280;22766;48.042;11.192;2023-04-29T11:56:55;94843.41;;;22.97;59.98
36828;BME280;22766;48.042;11.192;2023-04-29T11:59:22;94839.88;;;22.80;55.43
36828;BME280;22766;48.042;11.192;2023-04-29T12:01:49;94842.09;;;22.71;57.63
36828;BME280;22766;48.042;11.192;2023-04-29T12:04:17;94855.38;;;22.00;56.50
36828;BME280;22766;48.042;11.192;2023-04-29T12:06:50;94847.81;;;21.33;61.95
36828;BME280;22766;48.042;11.192;2023-04-29T12:09:18;94848.19;;;21.18;63.05
36828;BME280;22766;48.042;11.192;2023-04-29T12:11:45;94848.94;;;21.07;66.09
36828;BME280;22766;48.042;11.192;2023-04-29T12:14:16;94839.47;;;21.06;65.11
36828;BME280;22766;48.042;11.192;2023-04-29T12:16:43;94847.50;;;20.69;65.34
36828;BME280;22766;48.042;11.192;2023-04-29T12:19:11;94850.78;;;20.64;65.31
36828;BME280;22766;48.042;11.192;2023-04-29T12:21:47;94845.63;;;20.76;69.99
36828;BME280;22766;48.042;11.192;2023-04-29T12:24:14;94842.53;;;22.57;53.75
36828;BME280;22766;48.042;11.192;2023-04-29T12:26:44;94840.59;;;24.11;47.96
36828;BME280;22766;48.042;11.192;2023-04-29T12:29:12;94834.47;;;25.15;47.04
36828;BME280;22766;48.042;11.192;2023-04-29T12:31:39;94836.09;;;25.16;45.79
36828;BME280;22766;48.042;11.192;2023-04-29T12:34:06;94834.69;;;24.04;43.97
36828;BME280;22766;48.042;11.192;2023-04-29T12:36:35;94842.22;;;23.16;50.19
36828;BME280;22766;48.042;11.192;2023-04-29T12:39:05;94843.56;;;23.42;50.63
36828;BME280;22766;48.042;11.192;2023-04-29T12:41:39;94832.47;;;23.84;47.75
36828;BME280;22766;48.042;11.192;2023-04-29T12:44:07;94828.47;;;24.27;46.20
36828;BME280;22766;48.042;11.192;2023-04-29T12:46:40;94836.03;;;25.54;44.95
36828;BME280;22766;48.042;11.192;2023-04-29T12:49:07;94833.19;;;26.46;43.50
36828;BME280;22766;48.042;11.192;2023-04-29T12:51:34;94833.38;;;27.18;41.45
36828;BME280;22766;48.042;11.192;2023-04-29T12:54:03;94836.84;;;27.18;39.19
36828;BME280;22766;48.042;11.192;2023-04-29T12:56:30;94840.66;;;26.91;39.06
36828;BME280;22766;48.042;11.192;2023-04-29T12:59:07;94839.03;;;25.63;40.15
36828;BME280;22766;48.042;11.192;2023-04-29T13:01:35;94840.66;;;25.90;41.71
36828;BME280;22766;48.042;11.192;2023-04-29T13:04:02;94841.53;;;25.74;40.88
36828;BME280;22766;48.042;11.192;2023-04-29T13:06:31;94843.09;;;25.27;42.12
36828;BME280;22766;48.042;11.192;2023-04-29T13:08:58;94841.59;;;25.53;42.02
36828;BME280;22766;48.042;11.192;2023-04-29T13:11:25;94845.41;;;26.52;41.45
36828;BME280;22766;48.042;11.192;2023-04-29T13:13:59;94839.72;;;27.84;39.56
36828;BME280;22766;48.042;11.192;2023-04-29T13:16:26;94829.34;;;27.62;37.63
36828;BME280;22766;48.042;11.192;2023-04-29T13:18:53;94836.63;;;28.37;38.38
36828;BME280;22766;48.042;11.192;2023-04-29T13:21:39;94832.22;;;29.31;35.60
36828;BME280;22766;48.042;11.192;2023-04-29T13:24:06;94827.69;;;29.32;34.02